Rancho Santa Fe, California
Current Conditions -  °F | °C
As of 4:53 PM on Sunday 23 Nov 2014 (Local Time) from KCRQ Reporting Station
Clear Clear  
Wind Chill: 67°   Ceiling: Unl
Heat Index: 67°   Visibility: 10mi
Dew Point: 47°   Wind: 3mph
Humidity: 49%   Direction: 130°SE
Pressure: 30.07"   Gusts: NA
Location:  33.02°N, 117.2°W
Report Text: KCRQ 240053Z AUTO 13003KT 10SM CLR 19/08 A3007 RMK AO2 SLP180 T01940083 TSNO
Loading
Personal Weather Stations






























Interactive Weather Map New forecast layout! Learn more

10-Day Weather Forecast

Advertisements
Track Severe Weather on mobile